createdAt,value
2022-11-24T00:01:05.839Z,100.00
2022-11-24T00:03:32.627Z,100.00
2022-11-24T00:06:04.441Z,100.00
2022-11-24T00:08:30.976Z,100.00
2022-11-24T00:11:09.176Z,100.00
2022-11-24T00:13:36.001Z,100.00
2022-11-24T00:16:14.378Z,100.00
2022-11-24T00:18:42.967Z,100.00
2022-11-24T00:21:10.310Z,100.00
2022-11-24T00:23:37.741Z,100.00
2022-11-24T00:26:08.760Z,100.00
2022-11-24T00:28:36.779Z,100.00
2022-11-24T00:31:04.818Z,100.00
2022-11-24T00:33:31.897Z,100.00
2022-11-24T00:36:00.042Z,100.00
2022-11-24T00:38:27.190Z,100.00
2022-11-24T00:40:53.672Z,100.00
2022-11-24T00:43:22.872Z,100.00
2022-11-24T00:45:49.299Z,100.00
2022-11-24T00:48:16.040Z,100.00
2022-11-24T00:50:42.454Z,100.00
2022-11-24T00:53:09.860Z,100.00
2022-11-24T00:55:36.286Z,100.00
2022-11-24T00:58:02.718Z,100.00
2022-11-24T01:00:29.392Z,100.00
2022-11-24T01:02:55.860Z,100.00
2022-11-24T01:05:22.275Z,100.00
2022-11-24T01:07:48.734Z,100.00
2022-11-24T01:10:15.175Z,100.00
2022-11-24T01:12:41.667Z,100.00
2022-11-24T01:15:09.035Z,100.00
2022-11-24T01:17:35.459Z,100.00
2022-11-24T01:20:01.902Z,100.00
2022-11-24T01:22:28.417Z,100.00
2022-11-24T01:24:54.808Z,100.00
2022-11-24T01:27:21.284Z,100.00
2022-11-24T01:29:47.743Z,100.00
2022-11-24T01:32:14.253Z,100.00
2022-11-24T01:34:40.643Z,100.00
2022-11-24T01:37:07.032Z,100.00
2022-11-24T01:39:33.414Z,100.00
2022-11-24T01:42:02.687Z,100.00
2022-11-24T01:44:30.582Z,100.00
2022-11-24T01:47:06.591Z,100.00
2022-11-24T01:49:39.111Z,100.00
2022-11-24T01:52:15.900Z,100.00
2022-11-24T01:54:48.126Z,100.00
2022-11-24T01:57:24.518Z,100.00
2022-11-24T01:59:55.874Z,100.00
2022-11-24T02:02:28.368Z,100.00
2022-11-24T02:04:58.219Z,100.00
2022-11-24T02:07:25.275Z,100.00
2022-11-24T02:09:59.342Z,100.00
2022-11-24T02:12:29.844Z,100.00
2022-11-24T02:14:56.644Z,100.00
2022-11-24T02:17:23.067Z,100.00
2022-11-24T02:20:04.268Z,100.00
2022-11-24T02:22:57.035Z,100.00
2022-11-24T02:25:52.058Z,100.00
2022-11-24T02:28:21.662Z,100.00
2022-11-24T02:30:49.246Z,100.00
2022-11-24T02:33:15.936Z,100.00
2022-11-24T02:35:42.639Z,99.08
2022-11-24T02:38:16.193Z,100.00
2022-11-24T02:40:47.841Z,100.00
2022-11-24T02:43:19.810Z,100.00
2022-11-24T02:45:48.011Z,100.00
2022-11-24T02:48:15.864Z,99.47
2022-11-24T02:50:42.567Z,100.00
2022-11-24T02:53:10.164Z,98.93
2022-11-24T02:55:36.594Z,97.72
2022-11-24T02:58:03.064Z,97.27
2022-11-24T03:00:29.471Z,98.00
2022-11-24T03:02:55.898Z,98.68
2022-11-24T03:05:22.480Z,98.47
2022-11-24T03:07:49.295Z,98.49
2022-11-24T03:10:16.699Z,96.71
2022-11-24T03:12:43.223Z,97.93
2022-11-24T03:15:10.157Z,96.91
2022-11-24T03:17:36.809Z,97.83
2022-11-24T03:20:05.222Z,98.96
2022-11-24T03:22:31.965Z,98.62
2022-11-24T03:24:58.498Z,97.81
2022-11-24T03:27:24.803Z,97.39
2022-11-24T03:29:51.428Z,97.77
2022-11-24T03:32:17.756Z,97.97
2022-11-24T03:34:44.166Z,97.81
2022-11-24T03:37:10.555Z,96.95
2022-11-24T03:39:36.940Z,96.68
2022-11-24T03:42:03.385Z,96.03
2022-11-24T03:44:29.807Z,95.95
2022-11-24T03:46:56.197Z,95.98
2022-11-24T03:49:22.635Z,97.22
2022-11-24T03:51:49.720Z,95.42
2022-11-24T03:54:16.158Z,96.05
2022-11-24T03:56:42.742Z,95.19
2022-11-24T03:59:09.074Z,94.62
2022-11-24T04:01:35.649Z,95.76
2022-11-24T04:04:02.073Z,94.54
2022-11-24T04:06:28.588Z,94.43
2022-11-24T04:08:55.203Z,95.73
2022-11-24T04:11:41.504Z,94.96
2022-11-24T04:14:13.197Z,95.52
2022-11-24T04:16:39.851Z,94.43
2022-11-24T04:19:06.507Z,95.67
2022-11-24T04:21:33.004Z,95.75
2022-11-24T04:23:59.385Z,97.64
2022-11-24T04:26:25.813Z,98.02
2022-11-24T04:28:52.274Z,98.54
2022-11-24T04:31:18.668Z,97.65
2022-11-24T04:33:45.279Z,98.31
2022-11-24T04:36:11.664Z,99.04
2022-11-24T04:39:23.025Z,98.26
2022-11-24T04:41:24.511Z,97.45
2022-11-24T04:43:51.223Z,97.00
2022-11-24T04:46:17.830Z,97.05
2022-11-24T04:48:44.223Z,97.31
2022-11-24T04:51:13.346Z,97.58
2022-11-24T04:53:39.767Z,97.76
2022-11-24T04:56:06.688Z,97.11
2022-11-24T04:58:33.266Z,96.80
2022-11-24T05:00:59.922Z,96.58
2022-11-24T05:03:26.340Z,97.57
2022-11-24T05:05:52.778Z,97.34
2022-11-24T05:08:19.230Z,97.50
2022-11-24T05:10:46.804Z,100.00
2022-11-24T05:13:13.767Z,100.00
2022-11-24T05:15:41.745Z,100.00
2022-11-24T05:18:12.123Z,100.00
2022-11-24T05:20:38.990Z,100.00
2022-11-24T05:23:07.467Z,100.00
2022-11-24T05:25:35.068Z,100.00
2022-11-24T05:28:03.979Z,100.00
2022-11-24T05:30:30.977Z,100.00
2022-11-24T05:32:58.212Z,100.00
2022-11-24T05:35:24.948Z,100.00
2022-11-24T05:37:51.328Z,100.00
2022-11-24T05:40:17.868Z,100.00
2022-11-24T05:42:47.586Z,100.00
2022-11-24T05:45:17.687Z,100.00
2022-11-24T05:47:44.636Z,97.98
2022-11-24T05:50:13.679Z,98.42
2022-11-24T05:52:40.625Z,99.45
2022-11-24T05:55:08.755Z,98.08
2022-11-24T05:57:35.453Z,97.16
2022-11-24T06:00:03.872Z,98.29
2022-11-24T06:02:54.454Z,98.15
2022-11-24T06:05:24.595Z,98.04
2022-11-24T06:07:52.217Z,98.48
2022-11-24T06:10:21.002Z,98.88
2022-11-24T06:12:48.034Z,96.81
2022-11-24T06:15:14.514Z,98.36
2022-11-24T06:17:41.063Z,98.48
2022-11-24T06:20:07.827Z,99.27
2022-11-24T06:22:34.432Z,100.00
2022-11-24T06:25:00.865Z,100.00
2022-11-24T06:27:27.802Z,100.00
2022-11-24T06:29:54.357Z,100.00
2022-11-24T06:32:20.785Z,100.00
2022-11-24T06:34:47.245Z,100.00
2022-11-24T06:37:13.662Z,100.00
2022-11-24T06:39:40.208Z,100.00
2022-11-24T06:42:07.020Z,100.00
2022-11-24T06:44:33.785Z,100.00
2022-11-24T06:47:00.456Z,100.00
2022-11-24T06:49:27.152Z,100.00
2022-11-24T06:51:54.272Z,100.00
2022-11-24T06:54:23.368Z,100.00
2022-11-24T06:56:49.967Z,100.00
2022-11-24T06:59:20.152Z,100.00
2022-11-24T07:01:47.105Z,100.00
2022-11-24T07:04:13.984Z,100.00
2022-11-24T07:06:41.373Z,100.00
2022-11-24T07:09:09.547Z,100.00
2022-11-24T07:11:36.317Z,100.00
2022-11-24T07:14:03.179Z,100.00
2022-11-24T07:16:30.059Z,100.00
2022-11-24T07:18:57.739Z,100.00
2022-11-24T07:21:25.714Z,100.00
2022-11-24T07:23:54.148Z,100.00
2022-11-24T07:26:21.511Z,100.00
2022-11-24T07:28:47.972Z,100.00
2022-11-24T07:31:18.755Z,100.00
2022-11-24T07:33:49.848Z,100.00
2022-11-24T07:36:16.527Z,100.00
2022-11-24T07:38:43.084Z,100.00
2022-11-24T07:41:11.363Z,100.00
2022-11-24T07:43:38.664Z,100.00
2022-11-24T07:46:06.963Z,100.00
2022-11-24T07:48:34.373Z,100.00
2022-11-24T07:51:02.400Z,100.00
2022-11-24T07:53:29.116Z,100.00
2022-11-24T07:55:57.026Z,100.00
2022-11-24T07:58:27.619Z,100.00
2022-11-24T08:00:56.865Z,100.00
2022-11-24T08:03:23.922Z,100.00
2022-11-24T08:06:23.205Z,100.00
2022-11-24T08:08:45.210Z,100.00
2022-11-24T08:11:17.266Z,100.00
2022-11-24T08:13:43.992Z,100.00
2022-11-24T08:16:12.788Z,100.00
2022-11-24T08:18:39.552Z,100.00
2022-11-24T08:21:06.403Z,100.00
2022-11-24T08:23:33.143Z,100.00
2022-11-24T08:26:05.055Z,100.00
2022-11-24T08:28:32.483Z,100.00
2022-11-24T08:31:06.881Z,100.00
2022-11-24T08:33:33.593Z,100.00
2022-11-24T08:36:04.208Z,100.00
2022-11-24T08:38:30.746Z,100.00
2022-11-24T08:41:01.813Z,100.00
2022-11-24T08:43:28.311Z,100.00
2022-11-24T08:45:54.750Z,100.00
2022-11-24T08:48:21.261Z,100.00
2022-11-24T08:50:47.644Z,100.00
2022-11-24T08:53:16.121Z,100.00
2022-11-24T08:55:42.588Z,100.00
2022-11-24T08:58:08.987Z,100.00
2022-11-24T09:00:35.522Z,100.00
2022-11-24T09:03:01.904Z,100.00
2022-11-24T09:05:51.310Z,100.00
2022-11-24T09:08:14.664Z,100.00
2022-11-24T09:10:41.036Z,100.00
2022-11-24T09:13:08.506Z,100.00
2022-11-24T09:15:35.344Z,100.00
2022-11-24T09:18:01.743Z,100.00
2022-11-24T09:20:28.320Z,100.00
2022-11-24T09:22:55.946Z,100.00
2022-11-24T09:25:23.610Z,100.00
2022-11-24T09:27:51.001Z,99.88
2022-11-24T09:30:17.791Z,99.58
2022-11-24T09:32:44.402Z,99.40
2022-11-24T09:35:10.710Z,99.76
2022-11-24T09:37:37.190Z,99.29
2022-11-24T09:40:03.939Z,97.73
2022-11-24T09:43:03.551Z,98.36
2022-11-24T09:46:04.615Z,98.34
2022-11-24T09:48:34.670Z,98.49
2022-11-24T09:51:04.277Z,98.71
2022-11-24T09:53:45.915Z,98.16
2022-11-24T09:56:25.884Z,97.83
2022-11-24T09:58:59.248Z,97.91
2022-11-24T10:01:37.462Z,95.70
2022-11-24T10:04:10.707Z,95.41
2022-11-24T10:06:54.063Z,95.65
2022-11-24T10:09:51.976Z,96.60
2022-11-24T10:13:02.124Z,95.07
2022-11-24T10:15:54.112Z,92.59
2022-11-24T10:18:50.133Z,92.95
2022-11-24T10:21:42.123Z,93.74
2022-11-24T10:24:26.570Z,94.39
2022-11-24T10:27:02.168Z,93.31
2022-11-24T10:29:30.713Z,93.71
2022-11-24T10:31:57.804Z,94.43
2022-11-24T10:34:27.091Z,92.41
2022-11-24T10:37:05.854Z,92.61
2022-11-24T10:40:00.064Z,92.48
2022-11-24T10:42:28.625Z,93.12
2022-11-24T10:45:26.525Z,92.04
2022-11-24T10:47:52.944Z,92.58
2022-11-24T10:50:22.457Z,91.36
2022-11-24T10:53:03.440Z,90.91
2022-11-24T10:55:58.661Z,88.65
2022-11-24T10:58:38.273Z,89.25
2022-11-24T11:01:14.247Z,87.34
2022-11-24T11:03:59.600Z,87.12
2022-11-24T11:06:28.994Z,87.28
2022-11-24T11:09:07.952Z,86.26
2022-11-24T11:11:36.299Z,86.86
2022-11-24T11:14:05.102Z,83.92
2022-11-24T11:16:38.124Z,84.54
2022-11-24T11:19:47.873Z,84.89
2022-11-24T11:22:24.547Z,85.73
2022-11-24T11:25:04.521Z,83.43
2022-11-24T11:27:31.173Z,83.88
2022-11-24T11:35:50.215Z,84.29
2022-11-24T11:38:16.759Z,82.83
2022-11-24T11:40:43.791Z,82.79
2022-11-24T11:43:24.736Z,82.35
2022-11-24T11:46:02.122Z,82.79
2022-11-24T11:48:42.716Z,83.21
2022-11-24T11:51:25.842Z,82.40
2022-11-24T11:54:34.813Z,83.08
2022-11-24T11:57:17.674Z,82.99
2022-11-24T12:00:17.591Z,84.08
2022-11-24T12:03:08.366Z,82.37
2022-11-24T12:05:52.880Z,82.98
2022-11-24T12:09:03.299Z,83.57
2022-11-24T12:11:31.852Z,82.29
2022-11-24T12:14:41.994Z,79.70
2022-11-24T12:17:24.618Z,79.59
2022-11-24T12:20:00.540Z,77.04
2022-11-24T12:22:58.035Z,76.39
2022-11-24T12:25:38.116Z,73.99
2022-11-24T12:28:29.409Z,72.58
2022-11-24T12:31:06.825Z,71.44
2022-11-24T12:34:01.179Z,72.34
2022-11-24T12:36:46.673Z,73.78
2022-11-24T12:39:30.767Z,74.65
2022-11-24T12:42:09.049Z,73.41
2022-11-24T12:44:52.208Z,69.01
2022-11-24T12:47:24.365Z,68.97
2022-11-24T12:50:14.593Z,70.45
2022-11-24T12:52:54.138Z,71.54
2022-11-24T12:55:25.400Z,73.03
2022-11-24T12:58:11.402Z,72.70
2022-11-24T13:00:52.790Z,72.95
2022-11-24T13:03:40.851Z,73.82
2022-11-24T13:06:19.644Z,74.37
2022-11-24T13:08:46.541Z,72.87
2022-11-24T13:11:22.071Z,72.32
2022-11-24T13:14:00.601Z,71.02
2022-11-24T13:16:36.213Z,68.62
2022-11-24T13:19:17.200Z,68.56
2022-11-24T13:21:45.374Z,66.46
2022-11-24T13:24:18.560Z,67.00
2022-11-24T13:26:49.043Z,65.92
2022-11-24T13:29:25.538Z,64.34
2022-11-24T13:31:52.245Z,65.17
2022-11-24T13:34:40.239Z,65.14
2022-11-24T13:37:26.489Z,64.93
2022-11-24T13:40:23.172Z,64.21
2022-11-24T13:43:01.318Z,64.31
2022-11-24T13:45:40.544Z,65.16
2022-11-24T13:48:19.134Z,66.01
2022-11-24T13:50:53.001Z,64.82
2022-11-24T13:53:32.116Z,63.43
2022-11-24T13:55:59.679Z,64.38
2022-11-24T13:58:30.539Z,63.36
2022-11-24T14:01:08.891Z,66.00
2022-11-24T14:06:51.518Z,66.05
2022-11-24T14:09:44.599Z,66.53
2022-11-24T14:12:12.711Z,67.92
2022-11-24T14:14:40.344Z,66.61
2022-11-24T14:17:14.031Z,68.27
2022-11-24T14:19:41.617Z,69.18
2022-11-24T14:22:30.946Z,69.62
2022-11-24T14:25:01.419Z,70.04
2022-11-24T14:27:45.950Z,71.17
2022-11-24T14:30:13.502Z,71.73
2022-11-24T14:32:40.613Z,71.71
2022-11-24T14:35:25.445Z,72.80
2022-11-24T14:37:52.209Z,72.87
2022-11-24T14:40:36.966Z,73.10
2022-11-24T14:43:34.586Z,72.68
2022-11-24T14:46:04.577Z,74.94
2022-11-24T14:48:47.860Z,75.47
2022-11-24T14:51:23.036Z,75.33
2022-11-24T14:53:53.816Z,74.52
2022-11-24T14:56:24.965Z,74.07
2022-11-24T14:58:52.049Z,74.42
2022-11-24T15:01:21.211Z,76.82
2022-11-24T15:07:29.468Z,76.22
2022-11-24T15:09:58.515Z,75.65
2022-11-24T15:12:29.319Z,78.29
2022-11-24T15:15:00.955Z,80.01
2022-11-24T15:17:29.035Z,83.99
2022-11-24T15:20:00.007Z,86.46
2022-11-24T15:22:38.417Z,87.28
2022-11-24T15:25:25.883Z,88.66
2022-11-24T15:27:52.769Z,87.95
2022-11-24T15:30:19.956Z,90.35
2022-11-24T15:32:50.736Z,90.54
2022-11-24T15:35:17.270Z,92.77
2022-11-24T15:37:43.883Z,91.81
2022-11-24T15:40:14.036Z,93.33
2022-11-24T15:42:41.052Z,94.96
2022-11-24T15:45:07.996Z,97.45
2022-11-24T15:48:02.351Z,97.67
2022-11-24T15:50:28.819Z,97.66
2022-11-24T15:52:57.130Z,97.63
2022-11-24T15:55:23.600Z,99.97
2022-11-24T15:57:50.111Z,100.00
2022-11-24T16:00:21.359Z,99.07
2022-11-24T16:05:55.711Z,100.00
2022-11-24T16:08:22.251Z,100.00
2022-11-24T16:10:48.856Z,100.00
2022-11-24T16:13:15.369Z,100.00
2022-11-24T16:15:41.798Z,100.00
2022-11-24T16:18:08.447Z,100.00
2022-11-24T16:20:36.007Z,100.00
2022-11-24T16:23:04.352Z,100.00
2022-11-24T16:25:39.628Z,100.00
2022-11-24T16:28:07.692Z,100.00
2022-11-24T16:30:35.220Z,100.00
2022-11-24T16:33:06.643Z,100.00
2022-11-24T16:35:33.731Z,100.00
2022-11-24T16:38:00.140Z,100.00
2022-11-24T16:40:27.070Z,100.00
2022-11-24T16:42:56.144Z,100.00
2022-11-24T16:45:22.916Z,100.00
2022-11-24T16:47:49.757Z,100.00
2022-11-24T16:50:16.922Z,100.00
2022-11-24T16:52:43.776Z,100.00
2022-11-24T16:55:11.582Z,100.00
2022-11-24T16:57:38.280Z,100.00
2022-11-24T17:00:06.116Z,100.00
2022-11-24T17:02:33.443Z,100.00
2022-11-24T17:05:00.135Z,100.00
2022-11-24T17:07:26.777Z,100.00
2022-11-24T17:09:54.344Z,100.00
2022-11-24T17:12:20.818Z,100.00
2022-11-24T17:15:09.367Z,100.00
2022-11-24T17:17:33.731Z,100.00
2022-11-24T17:20:00.890Z,100.00
2022-11-24T17:22:27.992Z,100.00
2022-11-24T17:24:54.715Z,100.00
2022-11-24T17:27:21.280Z,100.00
2022-11-24T17:29:47.672Z,100.00
2022-11-24T17:32:14.240Z,100.00
2022-11-24T17:34:40.689Z,100.00
2022-11-24T17:37:07.461Z,100.00
2022-11-24T17:39:34.248Z,100.00
2022-11-24T17:42:00.705Z,100.00
2022-11-24T17:44:27.533Z,100.00
2022-11-24T17:46:54.223Z,100.00
2022-11-24T17:49:21.119Z,100.00
2022-11-24T17:51:51.521Z,100.00
2022-11-24T17:57:05.910Z,100.00
2022-11-24T17:59:32.606Z,100.00
2022-11-24T18:01:59.287Z,100.00
2022-11-24T18:04:25.651Z,100.00
2022-11-24T18:06:52.107Z,100.00
2022-11-24T18:09:18.510Z,100.00
2022-11-24T18:11:45.021Z,100.00
2022-11-24T18:14:11.641Z,100.00
2022-11-24T18:16:38.006Z,100.00
2022-11-24T18:19:10.457Z,100.00
2022-11-24T18:21:40.160Z,100.00
2022-11-24T18:24:09.651Z,100.00
2022-11-24T18:26:36.961Z,100.00
2022-11-24T18:29:04.327Z,100.00
2022-11-24T18:31:32.329Z,100.00
2022-11-24T18:33:59.425Z,100.00
2022-11-24T18:36:30.376Z,100.00
2022-11-24T18:39:00.899Z,100.00
2022-11-24T18:41:27.499Z,100.00
2022-11-24T18:43:53.948Z,100.00
2022-11-24T18:46:20.587Z,100.00
2022-11-24T18:48:47.185Z,100.00
2022-11-24T18:51:16.729Z,100.00
2022-11-24T18:53:45.110Z,100.00
2022-11-24T18:56:16.715Z,100.00
2022-11-24T18:58:43.910Z,100.00
2022-11-24T19:01:16.733Z,100.00
2022-11-24T19:03:48.776Z,100.00
2022-11-24T19:06:28.793Z,100.00
2022-11-24T19:08:55.996Z,100.00
2022-11-24T19:11:23.817Z,100.00
2022-11-24T19:14:15.269Z,100.00
2022-11-24T19:16:42.738Z,100.00
2022-11-24T19:19:11.576Z,100.00
2022-11-24T19:21:39.748Z,100.00
2022-11-24T19:24:09.868Z,100.00
2022-11-24T19:26:37.708Z,100.00
2022-11-24T19:29:05.947Z,100.00
2022-11-24T19:31:33.957Z,100.00
2022-11-24T19:34:03.335Z,100.00
2022-11-24T19:36:30.119Z,100.00
2022-11-24T19:38:57.552Z,100.00
2022-11-24T19:41:30.371Z,100.00
2022-11-24T19:43:58.628Z,100.00
2022-11-24T19:46:27.965Z,100.00
2022-11-24T19:48:57.022Z,100.00
2022-11-24T19:51:26.860Z,100.00
2022-11-24T19:53:54.160Z,100.00
2022-11-24T19:56:24.049Z,100.00
2022-11-24T19:58:51.611Z,100.00
2022-11-24T20:01:26.093Z,100.00
2022-11-24T20:04:00.988Z,100.00
2022-11-24T20:06:32.621Z,100.00
2022-11-24T20:09:02.873Z,100.00
2022-11-24T20:11:30.087Z,100.00
2022-11-24T20:13:57.773Z,100.00
2022-11-24T20:16:38.054Z,100.00
2022-11-24T20:19:09.727Z,100.00
2022-11-24T20:21:37.547Z,100.00
2022-11-24T20:24:11.374Z,100.00
2022-11-24T20:26:45.074Z,100.00
2022-11-24T20:29:13.317Z,100.00
2022-11-24T20:31:45.563Z,100.00
2022-11-24T20:34:13.276Z,100.00
2022-11-24T20:36:43.219Z,100.00
2022-11-24T20:39:13.938Z,100.00
2022-11-24T20:41:41.293Z,100.00
2022-11-24T20:44:13.011Z,100.00
2022-11-24T20:46:41.963Z,100.00
2022-11-24T20:49:12.086Z,100.00
2022-11-24T20:51:44.027Z,100.00
2022-11-24T20:54:13.007Z,100.00
2022-11-24T20:56:41.649Z,100.00
2022-11-24T20:59:11.838Z,100.00
2022-11-24T21:01:40.812Z,100.00
2022-11-24T21:04:13.338Z,100.00
2022-11-24T21:06:41.306Z,100.00
2022-11-24T21:09:09.069Z,100.00
2022-11-24T21:11:36.618Z,100.00
2022-11-24T21:14:04.248Z,100.00
2022-11-24T21:16:33.905Z,100.00
2022-11-24T21:19:12.576Z,100.00
2022-11-24T21:21:40.955Z,100.00
2022-11-24T21:24:21.442Z,100.00
2022-11-24T21:26:49.103Z,100.00
2022-11-24T21:29:17.759Z,100.00
2022-11-24T21:31:44.342Z,100.00
2022-11-24T21:34:13.780Z,100.00
2022-11-24T21:36:44.548Z,100.00
2022-11-24T21:39:13.500Z,100.00
2022-11-24T21:41:40.601Z,100.00
2022-11-24T21:44:07.220Z,100.00
2022-11-24T21:46:38.960Z,100.00
2022-11-24T21:49:07.639Z,100.00
2022-11-24T21:51:34.011Z,100.00
2022-11-24T21:54:00.845Z,100.00
2022-11-24T21:56:27.520Z,100.00
2022-11-24T21:58:57.149Z,100.00
2022-11-24T22:01:27.844Z,100.00
2022-11-24T22:03:54.979Z,100.00
2022-11-24T22:06:21.423Z,100.00
2022-11-24T22:08:48.902Z,100.00
2022-11-24T22:11:18.305Z,100.00
2022-11-24T22:13:45.544Z,100.00
2022-11-24T22:16:14.788Z,100.00
2022-11-24T22:18:42.519Z,100.00
2022-11-24T22:21:16.116Z,100.00
2022-11-24T22:23:43.401Z,100.00
2022-11-24T22:26:14.262Z,100.00
2022-11-24T22:28:41.082Z,100.00
2022-11-24T22:31:13.149Z,100.00
2022-11-24T22:33:40.147Z,100.00
2022-11-24T22:36:07.079Z,100.00
2022-11-24T22:38:34.243Z,100.00
2022-11-24T22:41:06.360Z,100.00
2022-11-24T22:43:35.202Z,100.00
2022-11-24T22:46:21.769Z,100.00
2022-11-24T22:48:49.991Z,100.00
2022-11-24T22:51:22.114Z,100.00
2022-11-24T22:53:50.499Z,100.00
2022-11-24T22:56:18.006Z,100.00
2022-11-24T22:58:44.481Z,100.00
2022-11-24T23:01:22.191Z,100.00
2022-11-24T23:03:49.598Z,100.00
2022-11-24T23:06:17.958Z,100.00
2022-11-24T23:08:44.693Z,100.00
2022-11-24T23:11:15.232Z,100.00
2022-11-24T23:13:41.981Z,100.00
2022-11-24T23:16:14.644Z,100.00
2022-11-24T23:18:42.121Z,100.00
2022-11-24T23:21:12.341Z,100.00
2022-11-24T23:23:39.319Z,100.00
2022-11-24T23:26:08.593Z,100.00
2022-11-24T23:28:35.351Z,100.00
2022-11-24T23:31:09.591Z,100.00
2022-11-24T23:33:36.690Z,100.00
2022-11-24T23:36:09.230Z,100.00
2022-11-24T23:38:36.198Z,100.00
2022-11-24T23:41:04.595Z,100.00
2022-11-24T23:43:32.525Z,100.00
2022-11-24T23:46:07.712Z,100.00
2022-11-24T23:48:34.375Z,100.00
2022-11-24T23:51:04.527Z,100.00
2022-11-24T23:53:35.474Z,100.00
2022-11-24T23:56:02.428Z,100.00
2022-11-24T23:58:28.874Z,100.00
